createdAt,value
2022-11-07T00:01:15.255Z,8.87
2022-11-07T00:03:41.897Z,8.67
2022-11-07T00:06:08.614Z,8.87
2022-11-07T00:08:35.383Z,8.79
2022-11-07T00:11:02.880Z,8.87
2022-11-07T00:13:29.736Z,9.01
2022-11-07T00:16:01.175Z,9.01
2022-11-07T00:18:28.124Z,8.99
2022-11-07T00:20:54.889Z,8.99
2022-11-07T00:23:21.636Z,8.98
2022-11-07T00:25:48.236Z,8.95
2022-11-07T00:28:14.924Z,8.95
2022-11-07T00:30:41.617Z,9.01
2022-11-07T00:33:08.352Z,9.02
2022-11-07T00:35:35.061Z,8.93
2022-11-07T00:38:01.626Z,9.00
2022-11-07T00:40:28.277Z,9.06
2022-11-07T00:42:54.849Z,9.13
2022-11-07T00:45:21.520Z,9.12
2022-11-07T00:47:48.215Z,8.96
2022-11-07T00:50:14.826Z,9.01
2022-11-07T00:52:41.456Z,8.95
2022-11-07T00:55:08.177Z,9.08
2022-11-07T00:57:34.790Z,9.09
2022-11-07T01:00:01.428Z,9.11
2022-11-07T01:02:28.248Z,9.15
2022-11-07T01:05:13.317Z,9.05
2022-11-07T01:07:40.194Z,9.16
2022-11-07T01:10:08.060Z,9.11
2022-11-07T01:12:35.848Z,9.08
2022-11-07T01:15:04.024Z,8.87
2022-11-07T01:17:30.719Z,8.81
2022-11-07T01:19:57.505Z,8.87
2022-11-07T01:22:24.192Z,8.94
2022-11-07T01:24:50.848Z,9.00
2022-11-07T01:27:17.448Z,9.05
2022-11-07T01:29:44.160Z,9.06
2022-11-07T01:32:10.822Z,9.15
2022-11-07T01:34:37.501Z,9.07
2022-11-07T01:37:04.084Z,8.82
2022-11-07T01:39:30.677Z,8.67
2022-11-07T01:41:57.513Z,8.54
2022-11-07T01:44:24.025Z,8.46
2022-11-07T01:46:52.678Z,8.33
2022-11-07T01:49:22.232Z,8.36
2022-11-07T01:51:57.963Z,8.32
2022-11-07T01:54:29.530Z,8.38
2022-11-07T01:56:58.900Z,8.27
2022-11-07T01:59:30.774Z,8.17
2022-11-07T02:01:58.466Z,8.22
2022-11-07T02:04:27.570Z,8.31
2022-11-07T02:07:07.544Z,8.30
2022-11-07T02:09:34.621Z,8.34
2022-11-07T02:12:02.589Z,8.32
2022-11-07T02:14:29.767Z,8.19
2022-11-07T02:16:57.111Z,8.23
2022-11-07T02:19:41.520Z,8.28
2022-11-07T02:22:35.603Z,8.25
2022-11-07T02:25:06.407Z,8.29
2022-11-07T02:27:34.658Z,8.28
2022-11-07T02:30:06.027Z,7.95
2022-11-07T02:32:32.895Z,8.24
2022-11-07T02:35:05.440Z,8.25
2022-11-07T02:37:39.439Z,8.38
2022-11-07T02:40:09.602Z,8.34
2022-11-07T02:42:44.853Z,8.28
2022-11-07T02:45:19.786Z,8.14
2022-11-07T02:47:46.537Z,8.16
2022-11-07T02:50:15.819Z,8.17
2022-11-07T02:52:43.359Z,8.08
2022-11-07T02:55:11.489Z,8.03
2022-11-07T02:57:38.145Z,8.12
2022-11-07T03:00:07.081Z,8.19
2022-11-07T03:02:33.882Z,8.25
2022-11-07T03:05:00.768Z,8.31
2022-11-07T03:07:27.689Z,8.39
2022-11-07T03:09:54.326Z,8.41
2022-11-07T03:12:21.427Z,8.45
2022-11-07T03:14:48.075Z,8.36
2022-11-07T03:17:14.689Z,8.55
2022-11-07T03:19:41.886Z,8.61
2022-11-07T03:22:08.535Z,8.65
2022-11-07T03:24:35.143Z,8.65
2022-11-07T03:27:01.706Z,8.74
2022-11-07T03:29:28.371Z,8.69
2022-11-07T03:31:55.043Z,8.84
2022-11-07T03:34:21.814Z,8.99
2022-11-07T03:36:48.508Z,9.09
2022-11-07T03:39:15.166Z,8.83
2022-11-07T03:41:41.761Z,9.08
2022-11-07T03:44:08.458Z,9.12
2022-11-07T03:46:35.093Z,9.08
2022-11-07T03:49:01.921Z,9.15
2022-11-07T03:51:28.675Z,9.12
2022-11-07T03:53:55.244Z,9.10
2022-11-07T03:56:21.891Z,9.20
2022-11-07T03:58:48.587Z,9.16
2022-11-07T04:01:15.197Z,9.06
2022-11-07T04:03:41.920Z,8.98
2022-11-07T04:06:08.715Z,9.17
2022-11-07T04:08:35.872Z,9.20
2022-11-07T04:11:02.443Z,9.25
2022-11-07T04:13:47.552Z,9.23
2022-11-07T04:16:32.919Z,9.04
2022-11-07T04:19:01.572Z,9.01
2022-11-07T04:21:28.195Z,8.88
2022-11-07T04:23:54.778Z,8.77
2022-11-07T04:26:40.105Z,8.62
2022-11-07T04:29:06.659Z,8.45
2022-11-07T04:31:34.508Z,8.24
2022-11-07T04:34:01.146Z,8.03
2022-11-07T04:36:28.047Z,7.95
2022-11-07T04:38:54.713Z,7.89
2022-11-07T04:41:24.183Z,7.84
2022-11-07T04:43:51.285Z,7.82
2022-11-07T04:46:18.291Z,7.86
2022-11-07T04:48:45.103Z,7.73
2022-11-07T04:51:21.757Z,7.75
2022-11-07T04:53:48.824Z,7.81
2022-11-07T04:56:15.510Z,7.90
2022-11-07T04:58:42.374Z,7.99
2022-11-07T05:01:09.041Z,8.07
2022-11-07T05:03:41.265Z,8.20
2022-11-07T05:06:13.588Z,8.23
2022-11-07T05:08:40.321Z,8.37
2022-11-07T05:11:06.897Z,8.23
2022-11-07T05:13:33.611Z,8.29
2022-11-07T05:16:00.201Z,8.41
2022-11-07T05:18:26.882Z,8.51
2022-11-07T05:20:53.442Z,8.52
2022-11-07T05:23:20.635Z,8.71
2022-11-07T05:25:47.434Z,8.93
2022-11-07T05:28:17.460Z,8.82
2022-11-07T05:30:45.272Z,9.09
2022-11-07T05:33:15.104Z,9.15
2022-11-07T05:35:42.584Z,9.27
2022-11-07T05:38:10.142Z,9.27
2022-11-07T05:40:38.743Z,9.47
2022-11-07T05:43:10.906Z,9.57
2022-11-07T05:45:38.326Z,9.70
2022-11-07T05:48:07.872Z,9.74
2022-11-07T05:50:34.535Z,9.86
2022-11-07T05:53:01.731Z,9.73
2022-11-07T05:55:28.923Z,9.91
2022-11-07T05:57:56.086Z,10.07
2022-11-07T06:00:22.941Z,10.03
2022-11-07T06:02:57.741Z,10.15
2022-11-07T06:05:24.682Z,10.23
2022-11-07T06:07:51.391Z,10.30
2022-11-07T06:10:18.787Z,10.43
2022-11-07T06:12:46.227Z,10.61
2022-11-07T06:15:12.913Z,10.65
2022-11-07T06:17:39.550Z,10.67
2022-11-07T06:20:06.930Z,10.66
2022-11-07T06:22:33.889Z,10.60
2022-11-07T06:25:01.397Z,10.64
2022-11-07T06:27:28.112Z,10.73
2022-11-07T06:29:54.900Z,10.81
2022-11-07T06:32:21.533Z,10.84
2022-11-07T06:34:48.542Z,10.76
2022-11-07T06:37:15.736Z,10.76
2022-11-07T06:39:42.588Z,10.85
2022-11-07T06:42:09.819Z,11.09
2022-11-07T06:44:37.075Z,11.23
2022-11-07T06:47:03.880Z,11.39
2022-11-07T06:49:31.019Z,11.44
2022-11-07T06:51:57.574Z,11.57
2022-11-07T06:54:24.189Z,11.52
2022-11-07T06:56:50.952Z,11.44
2022-11-07T06:59:17.667Z,11.48
2022-11-07T07:01:44.483Z,11.56
2022-11-07T07:04:11.609Z,11.76
2022-11-07T07:06:40.255Z,11.87
2022-11-07T07:09:07.132Z,11.87
2022-11-07T07:11:36.284Z,11.89
2022-11-07T07:14:04.700Z,11.99
2022-11-07T07:16:34.082Z,12.17
2022-11-07T07:19:00.721Z,12.22
2022-11-07T07:21:27.436Z,12.39
2022-11-07T07:23:54.166Z,12.33
2022-11-07T07:26:20.755Z,12.57
2022-11-07T07:28:49.090Z,12.85
2022-11-07T07:31:15.845Z,13.22
2022-11-07T07:33:43.624Z,13.22
2022-11-07T07:36:12.462Z,13.43
2022-11-07T07:38:41.897Z,13.56
2022-11-07T07:41:08.892Z,13.57
2022-11-07T07:43:35.751Z,13.34
2022-11-07T07:46:05.911Z,13.39
2022-11-07T07:48:33.230Z,13.10
2022-11-07T07:50:59.803Z,13.11
2022-11-07T07:53:26.426Z,13.24
2022-11-07T07:55:58.087Z,13.11
2022-11-07T07:58:27.021Z,13.27
2022-11-07T08:00:58.219Z,13.12
2022-11-07T08:03:29.335Z,13.17
2022-11-07T08:06:02.213Z,12.92
2022-11-07T08:08:31.491Z,13.02
2022-11-07T08:11:07.848Z,13.02
2022-11-07T08:13:34.559Z,13.26
2022-11-07T08:16:04.752Z,13.41
2022-11-07T08:18:31.373Z,13.51
2022-11-07T08:20:58.307Z,13.38
2022-11-07T08:23:25.266Z,13.42
2022-11-07T08:25:56.620Z,13.53
2022-11-07T08:28:26.012Z,13.50
2022-11-07T08:31:01.404Z,13.72
2022-11-07T08:33:28.921Z,13.66
2022-11-07T08:35:57.440Z,13.00
2022-11-07T08:38:24.516Z,12.90
2022-11-07T08:40:51.642Z,13.39
2022-11-07T08:43:19.098Z,13.43
2022-11-07T08:45:48.248Z,13.65
2022-11-07T08:48:17.048Z,13.74
2022-11-07T08:50:43.863Z,14.15
2022-11-07T08:53:18.206Z,14.35
2022-11-07T08:55:45.434Z,14.26
2022-11-07T08:58:12.146Z,14.32
2022-11-07T09:00:38.798Z,14.41
2022-11-07T09:03:44.143Z,14.23
2022-11-07T09:05:57.427Z,14.38
2022-11-07T09:08:24.033Z,14.27
2022-11-07T09:10:51.251Z,14.13
2022-11-07T09:13:19.214Z,14.34
2022-11-07T09:15:50.629Z,14.34
2022-11-07T09:18:19.283Z,14.25
2022-11-07T09:20:45.868Z,13.97
2022-11-07T09:23:13.550Z,13.89
2022-11-07T09:25:40.353Z,13.57
2022-11-07T09:28:07.025Z,13.93
2022-11-07T09:30:33.880Z,14.61
2022-11-07T09:33:00.878Z,15.07
2022-11-07T09:35:27.922Z,15.26
2022-11-07T09:37:54.543Z,14.92
2022-11-07T09:40:40.912Z,15.20
2022-11-07T09:43:25.728Z,15.26
2022-11-07T09:46:01.393Z,15.34
2022-11-07T09:48:38.627Z,15.13
2022-11-07T09:51:06.153Z,14.73
2022-11-07T09:53:42.594Z,14.56
2022-11-07T09:56:12.732Z,14.53
2022-11-07T09:58:52.514Z,14.29
2022-11-07T10:01:21.539Z,13.51
2022-11-07T10:04:22.510Z,13.71
2022-11-07T10:06:49.413Z,13.66
2022-11-07T10:09:40.359Z,14.07
2022-11-07T10:12:43.252Z,13.94
2022-11-07T10:15:17.152Z,13.92
2022-11-07T10:17:59.157Z,13.74
2022-11-07T10:20:34.714Z,14.18
2022-11-07T10:23:17.795Z,14.10
2022-11-07T10:26:10.400Z,14.21
2022-11-07T10:28:48.548Z,14.16
2022-11-07T10:31:15.540Z,13.82
2022-11-07T10:33:51.462Z,14.40
2022-11-07T10:36:21.739Z,14.55
2022-11-07T10:38:49.008Z,14.17
2022-11-07T10:41:19.730Z,14.14
2022-11-07T10:43:53.825Z,14.91
2022-11-07T10:46:25.551Z,14.95
2022-11-07T10:48:57.395Z,14.97
2022-11-07T10:51:38.850Z,15.01
2022-11-07T10:54:06.716Z,14.97
2022-11-07T10:56:48.883Z,15.07
2022-11-07T10:59:25.432Z,15.36
2022-11-07T11:01:55.275Z,15.45
2022-11-07T11:04:24.242Z,15.21
2022-11-07T11:07:03.366Z,15.21
2022-11-07T11:09:34.690Z,15.14
2022-11-07T11:12:13.807Z,15.48
2022-11-07T11:14:40.654Z,15.39
2022-11-07T11:17:28.619Z,15.37
2022-11-07T11:19:55.351Z,15.40
2022-11-07T11:22:25.013Z,15.62
2022-11-07T11:25:03.863Z,15.89
2022-11-07T11:27:34.907Z,15.69
2022-11-07T11:30:21.666Z,15.69
2022-11-07T11:32:48.491Z,15.63
2022-11-07T11:35:42.001Z,15.63
2022-11-07T11:38:18.165Z,16.07
2022-11-07T11:40:53.356Z,15.98
2022-11-07T11:43:26.878Z,15.89
2022-11-07T11:46:15.767Z,16.29
2022-11-07T11:48:51.968Z,16.44
2022-11-07T11:51:33.463Z,16.63
2022-11-07T11:54:01.655Z,16.49
2022-11-07T11:56:50.010Z,16.45
2022-11-07T11:59:20.157Z,16.62
2022-11-07T12:02:14.777Z,16.70
2022-11-07T12:05:09.084Z,16.81
2022-11-07T12:08:04.218Z,17.00
2022-11-07T12:11:02.172Z,17.13
2022-11-07T12:13:34.675Z,17.14
2022-11-07T12:16:20.604Z,16.89
2022-11-07T12:18:47.182Z,16.71
2022-11-07T12:21:22.083Z,16.54
2022-11-07T12:24:27.498Z,16.73
2022-11-07T12:27:02.091Z,16.83
2022-11-07T12:29:53.624Z,17.22
2022-11-07T12:32:51.066Z,17.50
2022-11-07T12:35:35.846Z,17.42
2022-11-07T12:38:14.618Z,17.51
2022-11-07T12:41:12.972Z,17.55
2022-11-07T12:44:09.869Z,17.13
2022-11-07T12:46:51.980Z,16.82
2022-11-07T12:49:47.484Z,17.06
2022-11-07T12:52:43.760Z,17.11
2022-11-07T12:55:40.148Z,16.75
2022-11-07T12:58:18.341Z,16.71
2022-11-07T13:00:46.342Z,16.68
2022-11-07T13:03:46.899Z,16.69
2022-11-07T13:06:35.149Z,16.54
2022-11-07T13:09:23.045Z,16.70
2022-11-07T13:11:59.253Z,17.00
2022-11-07T13:14:31.241Z,17.14
2022-11-07T13:17:03.507Z,17.11
2022-11-07T13:19:40.534Z,17.03
2022-11-07T13:22:16.338Z,17.24
2022-11-07T13:24:52.252Z,17.42
2022-11-07T13:27:24.888Z,17.22
2022-11-07T13:29:52.272Z,17.01
2022-11-07T13:32:19.227Z,16.82
2022-11-07T13:34:48.683Z,16.74
2022-11-07T13:37:25.561Z,16.43
2022-11-07T13:39:59.241Z,16.22
2022-11-07T13:42:28.413Z,16.47
2022-11-07T13:45:01.015Z,16.52
2022-11-07T13:47:41.323Z,16.78
2022-11-07T13:50:19.755Z,16.59
2022-11-07T13:53:02.175Z,16.56
2022-11-07T13:55:41.128Z,16.72
2022-11-07T13:58:13.042Z,16.53
2022-11-07T14:00:39.668Z,16.36
2022-11-07T14:03:06.717Z,16.45
2022-11-07T14:05:38.148Z,16.19
2022-11-07T14:08:20.125Z,16.40
2022-11-07T14:10:49.745Z,16.46
2022-11-07T14:13:40.633Z,16.40
2022-11-07T14:16:21.503Z,16.33
2022-11-07T14:19:13.004Z,16.36
2022-11-07T14:21:39.582Z,16.37
2022-11-07T14:24:23.210Z,16.07
2022-11-07T14:27:00.489Z,16.09
2022-11-07T14:29:27.237Z,16.05
2022-11-07T14:31:59.567Z,15.71
2022-11-07T14:34:26.965Z,15.84
2022-11-07T14:36:59.878Z,15.42
2022-11-07T14:39:32.581Z,15.76
2022-11-07T14:42:02.933Z,15.59
2022-11-07T14:44:53.736Z,15.82
2022-11-07T14:47:28.348Z,15.79
2022-11-07T14:49:56.221Z,15.91
2022-11-07T14:52:32.785Z,15.21
2022-11-07T14:55:17.913Z,15.74
2022-11-07T14:57:45.356Z,14.97
2022-11-07T15:00:15.976Z,14.91
2022-11-07T15:02:42.923Z,14.63
2022-11-07T15:05:29.038Z,14.79
2022-11-07T15:07:57.713Z,14.38
2022-11-07T15:10:39.904Z,14.05
2022-11-07T15:13:22.753Z,14.42
2022-11-07T15:16:06.294Z,13.67
2022-11-07T15:18:39.797Z,13.95
2022-11-07T15:21:07.154Z,13.14
2022-11-07T15:23:35.296Z,13.61
2022-11-07T15:26:08.172Z,13.63
2022-11-07T15:28:52.648Z,13.13
2022-11-07T15:31:26.046Z,13.14
2022-11-07T15:33:54.190Z,12.84
2022-11-07T15:36:21.359Z,12.93
2022-11-07T15:38:49.672Z,13.35
2022-11-07T15:41:17.071Z,12.90
2022-11-07T15:43:43.907Z,12.56
2022-11-07T15:46:34.447Z,13.09
2022-11-07T15:49:02.636Z,12.87
2022-11-07T15:51:30.776Z,12.33
2022-11-07T15:53:57.575Z,12.18
2022-11-07T15:56:26.097Z,12.56
2022-11-07T15:58:54.091Z,12.55
2022-11-07T16:01:20.856Z,12.39
2022-11-07T16:03:47.551Z,12.51
2022-11-07T16:06:30.639Z,12.69
2022-11-07T16:08:58.060Z,12.66
2022-11-07T16:11:24.718Z,12.57
2022-11-07T16:13:59.361Z,12.46
2022-11-07T16:16:35.860Z,12.50
2022-11-07T16:19:02.536Z,12.57
2022-11-07T16:21:29.149Z,12.50
2022-11-07T16:23:55.860Z,12.45
2022-11-07T16:26:30.052Z,12.30
2022-11-07T16:28:56.943Z,12.36
2022-11-07T16:31:23.861Z,12.37
2022-11-07T16:33:50.703Z,12.24
2022-11-07T16:36:21.980Z,12.23
2022-11-07T16:38:48.840Z,12.23
2022-11-07T16:41:15.628Z,12.04
2022-11-07T16:43:43.279Z,11.96
2022-11-07T16:46:18.386Z,12.00
2022-11-07T16:48:47.118Z,11.85
2022-11-07T16:51:16.200Z,11.80
2022-11-07T16:53:43.909Z,11.77
2022-11-07T16:56:32.200Z,11.79
2022-11-07T16:58:59.610Z,11.88
2022-11-07T17:01:27.830Z,11.85
2022-11-07T17:03:54.970Z,11.98
2022-11-07T17:06:33.302Z,12.01
2022-11-07T17:09:08.648Z,11.92
2022-11-07T17:11:37.800Z,12.05
2022-11-07T17:14:04.505Z,11.92
2022-11-07T17:16:35.661Z,11.93
2022-11-07T17:19:02.942Z,11.84
2022-11-07T17:21:40.168Z,11.88
2022-11-07T17:24:07.437Z,11.85
2022-11-07T17:26:37.751Z,11.65
2022-11-07T17:29:12.065Z,11.42
2022-11-07T17:31:38.750Z,11.37
2022-11-07T17:34:05.535Z,11.25
2022-11-07T17:36:37.770Z,11.28
2022-11-07T17:39:12.204Z,11.09
2022-11-07T17:41:40.583Z,11.26
2022-11-07T17:44:07.939Z,11.13
2022-11-07T17:46:36.970Z,11.12
2022-11-07T17:49:09.159Z,10.67
2022-11-07T17:51:36.193Z,10.89
2022-11-07T17:54:04.406Z,10.89
2022-11-07T17:56:31.892Z,10.81
2022-11-07T17:59:07.497Z,10.83
2022-11-07T18:01:37.064Z,10.52
2022-11-07T18:04:05.714Z,10.83
2022-11-07T18:06:37.633Z,10.78
2022-11-07T18:09:06.817Z,10.87
2022-11-07T18:11:34.244Z,10.86
2022-11-07T18:14:01.244Z,10.74
2022-11-07T18:16:31.925Z,10.79
2022-11-07T18:18:59.663Z,10.97
2022-11-07T18:21:27.224Z,11.18
2022-11-07T18:23:55.105Z,11.06
2022-11-07T18:26:30.548Z,11.25
2022-11-07T18:29:02.557Z,11.12
2022-11-07T18:31:35.468Z,11.27
2022-11-07T18:34:04.859Z,11.37
2022-11-07T18:36:35.469Z,11.35
2022-11-07T18:39:04.179Z,10.90
2022-11-07T18:41:30.940Z,11.08
2022-11-07T18:44:03.174Z,11.23
2022-11-07T18:46:31.477Z,11.39
2022-11-07T18:49:00.008Z,11.03
2022-11-07T18:51:27.312Z,11.16
2022-11-07T18:53:54.815Z,10.71
2022-11-07T18:56:25.871Z,10.60
2022-11-07T18:58:52.888Z,10.37
2022-11-07T19:01:27.516Z,10.74
2022-11-07T19:04:15.970Z,10.78
2022-11-07T19:07:04.957Z,10.81
2022-11-07T19:09:41.400Z,10.67
2022-11-07T19:12:08.170Z,10.79
2022-11-07T19:14:35.028Z,11.04
2022-11-07T19:17:01.853Z,10.66
2022-11-07T19:19:28.872Z,10.87
2022-11-07T19:21:55.569Z,10.28
2022-11-07T19:24:22.404Z,10.46
2022-11-07T19:26:49.070Z,10.24
2022-11-07T19:29:16.771Z,10.54
2022-11-07T19:31:44.120Z,10.64
2022-11-07T19:34:11.104Z,10.20
2022-11-07T19:36:37.901Z,10.11
2022-11-07T19:39:04.934Z,10.58
2022-11-07T19:41:31.647Z,10.45
2022-11-07T19:44:01.737Z,10.48
2022-11-07T19:46:28.766Z,10.50
2022-11-07T19:48:56.703Z,10.30
2022-11-07T19:51:23.524Z,10.13
2022-11-07T19:53:58.167Z,10.16
2022-11-07T19:56:29.091Z,10.44
2022-11-07T19:58:56.304Z,10.52
2022-11-07T20:01:26.678Z,10.63
2022-11-07T20:03:54.438Z,10.58
2022-11-07T20:06:32.220Z,10.78
2022-11-07T20:09:00.517Z,10.81
2022-11-07T20:11:27.709Z,10.97
2022-11-07T20:13:58.656Z,10.83
2022-11-07T20:16:28.578Z,10.85
2022-11-07T20:18:55.310Z,10.82
2022-11-07T20:21:23.109Z,10.65
2022-11-07T20:23:51.819Z,10.77
2022-11-07T20:26:21.695Z,10.77
2022-11-07T20:28:49.437Z,10.76
2022-11-07T20:31:25.357Z,10.66
2022-11-07T20:33:52.997Z,10.63
2022-11-07T20:36:20.292Z,10.42
2022-11-07T20:38:47.059Z,10.54
2022-11-07T20:41:14.217Z,10.35
2022-11-07T20:43:41.396Z,10.31
2022-11-07T20:46:10.730Z,10.44
2022-11-07T20:48:38.082Z,10.38
2022-11-07T20:51:16.258Z,10.45
2022-11-07T20:53:49.551Z,10.57
2022-11-07T20:56:17.911Z,10.56
2022-11-07T20:58:44.983Z,10.50
2022-11-07T21:01:15.850Z,10.53
2022-11-07T21:03:44.583Z,10.53
2022-11-07T21:06:14.403Z,10.54
2022-11-07T21:08:43.528Z,10.52
2022-11-07T21:11:11.437Z,10.55
2022-11-07T21:13:38.728Z,10.41
2022-11-07T21:16:06.749Z,10.52
2022-11-07T21:18:33.536Z,10.54
2022-11-07T21:21:16.475Z,10.56
2022-11-07T21:23:43.632Z,10.61
2022-11-07T21:26:19.477Z,10.63
2022-11-07T21:28:46.719Z,10.53
2022-11-07T21:31:18.241Z,10.66
2022-11-07T21:33:46.332Z,10.68
2022-11-07T21:36:20.018Z,10.72
2022-11-07T21:38:47.191Z,10.74
2022-11-07T21:41:17.577Z,10.76
2022-11-07T21:43:44.326Z,10.77
2022-11-07T21:46:14.093Z,10.82
2022-11-07T21:48:41.488Z,10.83
2022-11-07T21:51:29.855Z,10.74
2022-11-07T21:53:58.058Z,10.73
2022-11-07T21:56:26.740Z,10.62
2022-11-07T21:58:56.229Z,10.63
2022-11-07T22:01:24.349Z,10.51
2022-11-07T22:04:09.829Z,10.52
2022-11-07T22:06:40.150Z,10.32
2022-11-07T22:09:08.772Z,10.36
2022-11-07T22:11:35.628Z,10.10
2022-11-07T22:14:02.643Z,10.07
2022-11-07T22:16:29.513Z,10.11
2022-11-07T22:18:56.180Z,10.08
2022-11-07T22:21:23.645Z,10.18
2022-11-07T22:23:50.874Z,10.19
2022-11-07T22:26:21.121Z,10.23
2022-11-07T22:28:48.796Z,10.16
2022-11-07T22:31:26.712Z,10.21
2022-11-07T22:33:54.449Z,10.07
2022-11-07T22:36:21.527Z,10.21
2022-11-07T22:38:48.377Z,10.24
2022-11-07T22:41:18.243Z,10.22
2022-11-07T22:43:45.013Z,10.27
2022-11-07T22:46:14.050Z,10.29
2022-11-07T22:48:41.279Z,10.32
2022-11-07T22:51:14.282Z,10.28
2022-11-07T22:53:41.119Z,10.32
2022-11-07T22:56:16.908Z,10.33
2022-11-07T22:58:44.448Z,10.34
2022-11-07T23:01:20.328Z,10.40
2022-11-07T23:03:47.984Z,10.27
2022-11-07T23:06:15.900Z,10.37
2022-11-07T23:08:42.720Z,10.36
2022-11-07T23:14:03.768Z,10.43
2022-11-07T23:16:32.976Z,10.47
2022-11-07T23:19:02.298Z,10.58
2022-11-07T23:21:29.632Z,10.52
2022-11-07T23:23:57.964Z,10.43
2022-11-07T23:26:26.122Z,10.65
2022-11-07T23:28:53.293Z,10.62
2022-11-07T23:31:20.217Z,10.50
2022-11-07T23:33:46.926Z,10.50
2022-11-07T23:36:15.591Z,10.51
2022-11-07T23:38:43.464Z,10.46
2022-11-07T23:41:13.065Z,10.40
2022-11-07T23:43:40.729Z,10.38
2022-11-07T23:46:26.796Z,10.51
2022-11-07T23:49:14.786Z,10.37
2022-11-07T23:51:42.286Z,10.32
2022-11-07T23:54:27.439Z,10.34
2022-11-07T23:56:54.364Z,10.42
2022-11-07T23:59:39.471Z,10.61
